sensor_id;sensor_type;location;lat;lon;timestamp;pressure;altitude;pressure_sealevel;temperature;humidity
59971;BME280;45825;45.434;9.116;2024-01-06T00:00:12;98905.78;;;5.67;100.00
59971;BME280;45825;45.434;9.116;2024-01-06T00:02:37;98918.75;;;5.84;100.00
59971;BME280;45825;45.434;9.116;2024-01-06T00:05:04;98923.47;;;5.78;100.00
59971;BME280;45825;45.434;9.116;2024-01-06T00:07:30;98920.00;;;5.77;100.00
59971;BME280;45825;45.434;9.116;2024-01-06T00:09:55;98923.66;;;5.75;100.00
59971;BME280;45825;45.434;9.116;2024-01-06T00:12:21;98914.88;;;5.76;100.00
59971;BME280;45825;45.434;9.116;2024-01-06T00:14:46;98919.28;;;5.90;100.00
59971;BME280;45825;45.434;9.116;2024-01-06T00:17:11;98915.28;;;5.84;100.00
59971;BME280;45825;45.434;9.116;2024-01-06T00:19:37;98912.16;;;5.77;100.00
59971;BME280;45825;45.434;9.116;2024-01-06T00:22:02;98914.38;;;5.69;100.00
59971;BME280;45825;45.434;9.116;2024-01-06T00:24:27;98908.13;;;5.71;100.00
59971;BME280;45825;45.434;9.116;2024-01-06T00:26:53;98906.47;;;5.70;100.00
59971;BME280;45825;45.434;9.116;2024-01-06T00:29:18;98910.41;;;5.78;100.00
59971;BME280;45825;45.434;9.116;2024-01-06T00:31:43;98915.31;;;5.68;100.00
59971;BME280;45825;45.434;9.116;2024-01-06T00:34:08;98910.19;;;5.66;100.00
59971;BME280;45825;45.434;9.116;2024-01-06T00:36:34;98907.41;;;5.69;100.00
59971;BME280;45825;45.434;9.116;2024-01-06T00:38:59;98903.78;;;5.72;100.00
59971;BME280;45825;45.434;9.116;2024-01-06T00:41:25;98902.09;;;5.71;100.00
59971;BME280;45825;45.434;9.116;2024-01-06T00:43:50;98906.47;;;5.70;100.00
59971;BME280;45825;45.434;9.116;2024-01-06T00:46:15;98897.56;;;5.75;100.00
59971;BME280;45825;45.434;9.116;2024-01-06T00:48:41;98894.28;;;5.71;100.00
59971;BME280;45825;45.434;9.116;2024-01-06T00:51:06;98892.22;;;5.76;100.00
59971;BME280;45825;45.434;9.116;2024-01-06T00:53:32;98892.31;;;5.75;100.00
59971;BME280;45825;45.434;9.116;2024-01-06T00:55:57;98903.66;;;5.73;100.00
59971;BME280;45825;45.434;9.116;2024-01-06T00:58:22;98895.75;;;5.75;100.00
59971;BME280;45825;45.434;9.116;2024-01-06T01:00:48;98900.31;;;5.71;100.00
59971;BME280;45825;45.434;9.116;2024-01-06T01:03:13;98883.72;;;5.72;100.00
59971;BME280;45825;45.434;9.116;2024-01-06T01:05:38;98889.72;;;5.75;100.00
59971;BME280;45825;45.434;9.116;2024-01-06T01:08:04;98886.81;;;5.79;100.00
59971;BME280;45825;45.434;9.116;2024-01-06T01:10:29;98886.34;;;5.72;100.00
59971;BME280;45825;45.434;9.116;2024-01-06T01:12:55;98881.69;;;5.78;100.00
59971;BME280;45825;45.434;9.116;2024-01-06T01:15:20;98874.22;;;5.71;100.00
59971;BME280;45825;45.434;9.116;2024-01-06T01:17:45;98873.75;;;5.79;100.00
59971;BME280;45825;45.434;9.116;2024-01-06T01:20:11;98872.84;;;5.80;100.00
59971;BME280;45825;45.434;9.116;2024-01-06T01:22:36;98877.53;;;5.90;100.00
59971;BME280;45825;45.434;9.116;2024-01-06T01:25:02;98862.78;;;5.88;100.00
59971;BME280;45825;45.434;9.116;2024-01-06T01:27:32;98863.38;;;5.94;100.00
59971;BME280;45825;45.434;9.116;2024-01-06T01:29:58;98862.53;;;5.93;100.00
59971;BME280;45825;45.434;9.116;2024-01-06T01:32:23;98859.22;;;6.06;100.00
59971;BME280;45825;45.434;9.116;2024-01-06T01:34:48;98862.88;;;6.03;100.00
59971;BME280;45825;45.434;9.116;2024-01-06T01:37:14;98860.34;;;6.01;100.00
59971;BME280;45825;45.434;9.116;2024-01-06T01:39:39;98857.38;;;6.08;100.00
59971;BME280;45825;45.434;9.116;2024-01-06T01:42:04;98867.44;;;6.14;100.00
59971;BME280;45825;45.434;9.116;2024-01-06T01:44:30;98857.66;;;6.18;100.00
59971;BME280;45825;45.434;9.116;2024-01-06T01:46:55;98851.22;;;6.09;100.00
59971;BME280;45825;45.434;9.116;2024-01-06T01:49:21;98862.41;;;6.11;100.00
59971;BME280;45825;45.434;9.116;2024-01-06T01:51:46;98871.84;;;6.13;100.00
59971;BME280;45825;45.434;9.116;2024-01-06T01:54:12;98869.59;;;6.07;100.00
59971;BME280;45825;45.434;9.116;2024-01-06T01:56:39;98879.59;;;5.99;100.00
59971;BME280;45825;45.434;9.116;2024-01-06T01:59:11;98872.41;;;5.88;100.00
59971;BME280;45825;45.434;9.116;2024-01-06T02:01:37;98875.19;;;5.85;100.00
59971;BME280;45825;45.434;9.116;2024-01-06T02:04:03;98879.56;;;5.84;100.00
59971;BME280;45825;45.434;9.116;2024-01-06T02:06:28;98872.47;;;5.86;100.00
59971;BME280;45825;45.434;9.116;2024-01-06T02:08:53;98868.28;;;5.84;100.00
59971;BME280;45825;45.434;9.116;2024-01-06T02:11:19;98870.81;;;5.85;100.00
59971;BME280;45825;45.434;9.116;2024-01-06T02:13:44;98864.19;;;5.94;100.00
59971;BME280;45825;45.434;9.116;2024-01-06T02:16:09;98857.78;;;6.00;100.00
59971;BME280;45825;45.434;9.116;2024-01-06T02:18:35;98853.34;;;6.02;100.00
59971;BME280;45825;45.434;9.116;2024-01-06T02:21:01;98859.41;;;6.03;100.00
59971;BME280;45825;45.434;9.116;2024-01-06T02:23:27;98850.06;;;5.98;100.00
59971;BME280;45825;45.434;9.116;2024-01-06T02:25:53;98841.75;;;5.92;100.00
59971;BME280;45825;45.434;9.116;2024-01-06T02:28:18;98847.03;;;5.90;100.00
59971;BME280;45825;45.434;9.116;2024-01-06T02:30:44;98836.53;;;5.92;100.00
59971;BME280;45825;45.434;9.116;2024-01-06T02:33:10;98841.16;;;5.86;100.00
59971;BME280;45825;45.434;9.116;2024-01-06T02:35:35;98842.84;;;5.87;100.00
59971;BME280;45825;45.434;9.116;2024-01-06T02:38:01;98845.56;;;5.86;100.00
59971;BME280;45825;45.434;9.116;2024-01-06T02:40:27;98838.47;;;5.88;100.00
59971;BME280;45825;45.434;9.116;2024-01-06T02:42:52;98847.72;;;5.94;100.00
59971;BME280;45825;45.434;9.116;2024-01-06T02:45:17;98840.00;;;6.07;100.00
59971;BME280;45825;45.434;9.116;2024-01-06T02:47:43;98840.44;;;5.99;100.00
59971;BME280;45825;45.434;9.116;2024-01-06T02:50:08;98829.44;;;5.94;100.00
59971;BME280;45825;45.434;9.116;2024-01-06T02:52:33;98830.38;;;5.93;100.00
59971;BME280;45825;45.434;9.116;2024-01-06T02:54:59;98831.31;;;5.92;100.00
59971;BME280;45825;45.434;9.116;2024-01-06T02:57:25;98824.22;;;5.94;100.00
59971;BME280;45825;45.434;9.116;2024-01-06T02:59:51;98820.84;;;5.92;100.00
59971;BME280;45825;45.434;9.116;2024-01-06T03:02:16;98815.03;;;5.86;100.00
59971;BME280;45825;45.434;9.116;2024-01-06T03:04:42;98813.97;;;5.91;100.00
59971;BME280;45825;45.434;9.116;2024-01-06T03:07:07;98807.28;;;5.85;100.00
59971;BME280;45825;45.434;9.116;2024-01-06T03:09:32;98804.06;;;5.81;100.00
59971;BME280;45825;45.434;9.116;2024-01-06T03:11:58;98803.13;;;5.82;100.00
59971;BME280;45825;45.434;9.116;2024-01-06T03:14:23;98806.00;;;5.78;100.00
59971;BME280;45825;45.434;9.116;2024-01-06T03:16:48;98802.38;;;5.80;100.00
59971;BME280;45825;45.434;9.116;2024-01-06T03:19:14;98804.69;;;5.85;100.00
59971;BME280;45825;45.434;9.116;2024-01-06T03:21:39;98813.19;;;5.88;100.00
59971;BME280;45825;45.434;9.116;2024-01-06T03:24:06;98809.16;;;5.83;100.00
59971;BME280;45825;45.434;9.116;2024-01-06T03:26:32;98806.41;;;5.86;100.00
59971;BME280;45825;45.434;9.116;2024-01-06T03:28:58;98798.50;;;5.71;100.00
59971;BME280;45825;45.434;9.116;2024-01-06T03:31:24;98805.59;;;5.69;100.00
59971;BME280;45825;45.434;9.116;2024-01-06T03:33:49;98807.59;;;5.80;100.00
59971;BME280;45825;45.434;9.116;2024-01-06T03:36:15;98809.81;;;5.72;100.00
59971;BME280;45825;45.434;9.116;2024-01-06T03:38:42;98808.84;;;6.04;100.00
59971;BME280;45825;45.434;9.116;2024-01-06T03:41:07;98802.31;;;5.96;100.00
59971;BME280;45825;45.434;9.116;2024-01-06T03:43:32;98797.53;;;5.88;100.00
59971;BME280;45825;45.434;9.116;2024-01-06T03:45:58;98785.31;;;5.89;100.00
59971;BME280;45825;45.434;9.116;2024-01-06T03:48:25;98778.38;;;6.04;100.00
59971;BME280;45825;45.434;9.116;2024-01-06T03:50:50;98777.28;;;5.92;100.00
59971;BME280;45825;45.434;9.116;2024-01-06T03:53:16;98781.97;;;5.87;100.00
59971;BME280;45825;45.434;9.116;2024-01-06T03:55:41;98775.34;;;5.81;100.00
59971;BME280;45825;45.434;9.116;2024-01-06T03:58:06;98771.78;;;5.82;100.00
59971;BME280;45825;45.434;9.116;2024-01-06T04:00:32;98768.63;;;5.92;100.00
59971;BME280;45825;45.434;9.116;2024-01-06T04:02:57;98760.69;;;5.93;100.00
59971;BME280;45825;45.434;9.116;2024-01-06T04:05:22;98766.03;;;5.92;100.00
59971;BME280;45825;45.434;9.116;2024-01-06T04:07:47;98753.25;;;5.87;100.00
59971;BME280;45825;45.434;9.116;2024-01-06T04:10:13;98749.41;;;5.78;100.00
59971;BME280;45825;45.434;9.116;2024-01-06T04:12:38;98761.16;;;5.71;100.00
59971;BME280;45825;45.434;9.116;2024-01-06T04:15:04;98759.09;;;5.76;100.00
59971;BME280;45825;45.434;9.116;2024-01-06T04:17:29;98757.69;;;5.70;100.00
59971;BME280;45825;45.434;9.116;2024-01-06T04:19:54;98767.19;;;5.71;100.00
59971;BME280;45825;45.434;9.116;2024-01-06T04:22:20;98763.56;;;5.59;100.00
59971;BME280;45825;45.434;9.116;2024-01-06T04:24:45;98759.16;;;5.60;100.00
59971;BME280;45825;45.434;9.116;2024-01-06T04:27:10;98758.06;;;5.64;100.00
59971;BME280;45825;45.434;9.116;2024-01-06T04:29:36;98752.19;;;5.61;100.00
59971;BME280;45825;45.434;9.116;2024-01-06T04:32:01;98763.63;;;5.58;100.00
59971;BME280;45825;45.434;9.116;2024-01-06T04:34:27;98760.16;;;5.57;100.00
59971;BME280;45825;45.434;9.116;2024-01-06T04:36:52;98750.03;;;5.53;100.00
59971;BME280;45825;45.434;9.116;2024-01-06T04:39:18;98748.72;;;5.60;100.00
59971;BME280;45825;45.434;9.116;2024-01-06T04:41:43;98750.78;;;5.55;100.00
59971;BME280;45825;45.434;9.116;2024-01-06T04:44:08;98757.84;;;5.53;100.00
59971;BME280;45825;45.434;9.116;2024-01-06T04:46:34;98755.50;;;5.48;100.00
59971;BME280;45825;45.434;9.116;2024-01-06T04:48:59;98760.16;;;5.43;100.00
59971;BME280;45825;45.434;9.116;2024-01-06T04:51:24;98753.44;;;5.39;100.00
59971;BME280;45825;45.434;9.116;2024-01-06T04:53:49;98749.63;;;5.44;100.00
59971;BME280;45825;45.434;9.116;2024-01-06T04:56:15;98746.28;;;5.42;100.00
59971;BME280;45825;45.434;9.116;2024-01-06T04:58:40;98735.38;;;5.50;100.00
59971;BME280;45825;45.434;9.116;2024-01-06T05:01:05;98736.31;;;5.49;100.00
59971;BME280;45825;45.434;9.116;2024-01-06T05:03:31;98743.28;;;5.49;100.00
59971;BME280;45825;45.434;9.116;2024-01-06T05:05:56;98744.22;;;5.48;100.00
59971;BME280;45825;45.434;9.116;2024-01-06T05:08:21;98741.97;;;5.41;100.00
59971;BME280;45825;45.434;9.116;2024-01-06T05:10:48;98744.34;;;5.30;100.00
59971;BME280;45825;45.434;9.116;2024-01-06T05:13:14;98751.66;;;5.39;100.00
59971;BME280;45825;45.434;9.116;2024-01-06T05:15:39;98745.44;;;5.42;100.00
59971;BME280;45825;45.434;9.116;2024-01-06T05:18:05;98753.44;;;5.39;100.00
59971;BME280;45825;45.434;9.116;2024-01-06T05:20:30;98750.19;;;5.50;100.00
59971;BME280;45825;45.434;9.116;2024-01-06T05:22:56;98751.50;;;5.42;100.00
59971;BME280;45825;45.434;9.116;2024-01-06T05:25:21;98752.31;;;5.43;100.00
59971;BME280;45825;45.434;9.116;2024-01-06T05:27:46;98753.53;;;5.52;100.00
59971;BME280;45825;45.434;9.116;2024-01-06T05:30:11;98756.66;;;5.58;100.00
59971;BME280;45825;45.434;9.116;2024-01-06T05:32:37;98753.75;;;5.63;100.00
59971;BME280;45825;45.434;9.116;2024-01-06T05:35:03;98750.97;;;5.66;100.00
59971;BME280;45825;45.434;9.116;2024-01-06T05:37:29;98749.31;;;5.65;100.00
59971;BME280;45825;45.434;9.116;2024-01-06T05:39:54;98750.25;;;5.64;100.00
59971;BME280;45825;45.434;9.116;2024-01-06T05:42:20;98742.00;;;5.56;100.00
59971;BME280;45825;45.434;9.116;2024-01-06T05:44:45;98746.09;;;5.45;100.00
59971;BME280;45825;45.434;9.116;2024-01-06T05:47:10;98736.41;;;5.48;100.00
59971;BME280;45825;45.434;9.116;2024-01-06T05:49:36;98737.03;;;5.37;100.00
59971;BME280;45825;45.434;9.116;2024-01-06T05:52:01;98732.91;;;5.32;100.00
59971;BME280;45825;45.434;9.116;2024-01-06T05:54:26;98740.56;;;5.36;100.00
59971;BME280;45825;45.434;9.116;2024-01-06T05:56:52;98738.25;;;5.45;100.00
59971;BME280;45825;45.434;9.116;2024-01-06T05:59:17;98736.25;;;5.35;100.00
59971;BME280;45825;45.434;9.116;2024-01-06T06:01:42;98744.69;;;5.54;100.00
59971;BME280;45825;45.434;9.116;2024-01-06T06:04:09;98747.38;;;5.38;100.00
59971;BME280;45825;45.434;9.116;2024-01-06T06:06:35;98748.25;;;5.68;100.00
59971;BME280;45825;45.434;9.116;2024-01-06T06:09:00;98744.50;;;5.57;100.00
59971;BME280;45825;45.434;9.116;2024-01-06T06:11:25;98744.31;;;5.46;100.00
59971;BME280;45825;45.434;9.116;2024-01-06T06:13:50;98746.81;;;5.33;100.00
59971;BME280;45825;45.434;9.116;2024-01-06T06:16:16;98752.84;;;5.34;100.00
59971;BME280;45825;45.434;9.116;2024-01-06T06:18:41;98746.69;;;5.35;100.00
59971;BME280;45825;45.434;9.116;2024-01-06T06:21:07;98745.25;;;5.45;100.00
59971;BME280;45825;45.434;9.116;2024-01-06T06:23:33;98748.97;;;5.41;100.00
59971;BME280;45825;45.434;9.116;2024-01-06T06:25:59;98752.06;;;5.48;100.00
59971;BME280;45825;45.434;9.116;2024-01-06T06:28:25;98747.19;;;5.41;100.00
59971;BME280;45825;45.434;9.116;2024-01-06T06:30:50;98743.00;;;5.39;100.00
59971;BME280;45825;45.434;9.116;2024-01-06T06:33:16;98748.66;;;5.31;100.00
59971;BME280;45825;45.434;9.116;2024-01-06T06:35:42;98742.53;;;5.32;100.00
59971;BME280;45825;45.434;9.116;2024-01-06T06:38:07;98740.22;;;5.42;100.00
59971;BME280;45825;45.434;9.116;2024-01-06T06:40:32;98747.59;;;5.19;100.00
59971;BME280;45825;45.434;9.116;2024-01-06T06:42:58;98753.06;;;5.14;100.00
59971;BME280;45825;45.434;9.116;2024-01-06T06:45:23;98754.00;;;5.13;100.00
59971;BME280;45825;45.434;9.116;2024-01-06T06:47:49;98755.75;;;5.13;100.00
59971;BME280;45825;45.434;9.116;2024-01-06T06:50:18;98754.75;;;5.15;100.00
59971;BME280;45825;45.434;9.116;2024-01-06T06:52:44;98756.69;;;5.12;100.00
59971;BME280;45825;45.434;9.116;2024-01-06T06:55:10;98759.03;;;5.16;100.00
59971;BME280;45825;45.434;9.116;2024-01-06T06:57:36;98761.47;;;5.20;100.00
59971;BME280;45825;45.434;9.116;2024-01-06T07:00:01;98759.38;;;5.26;100.00
59971;BME280;45825;45.434;9.116;2024-01-06T07:02:27;98760.72;;;5.17;100.00
59971;BME280;45825;45.434;9.116;2024-01-06T07:04:52;98762.16;;;5.07;100.00
59971;BME280;45825;45.434;9.116;2024-01-06T07:07:18;98760.59;;;5.05;100.00
59971;BME280;45825;45.434;9.116;2024-01-06T07:09:44;98763.59;;;5.13;100.00
59971;BME280;45825;45.434;9.116;2024-01-06T07:12:09;98773.00;;;5.15;100.00
59971;BME280;45825;45.434;9.116;2024-01-06T07:14:35;98765.25;;;5.14;100.00
59971;BME280;45825;45.434;9.116;2024-01-06T07:17:00;98764.78;;;5.07;100.00
59971;BME280;45825;45.434;9.116;2024-01-06T07:19:25;98762.34;;;5.04;100.00
59971;BME280;45825;45.434;9.116;2024-01-06T07:21:50;98767.00;;;4.99;100.00
59971;BME280;45825;45.434;9.116;2024-01-06T07:24:16;98765.28;;;4.98;100.00
59971;BME280;45825;45.434;9.116;2024-01-06T07:26:41;98767.47;;;5.06;100.00
59971;BME280;45825;45.434;9.116;2024-01-06T07:29:06;98768.22;;;5.08;100.00
59971;BME280;45825;45.434;9.116;2024-01-06T07:31:33;98762.53;;;5.01;100.00
59971;BME280;45825;45.434;9.116;2024-01-06T07:33:59;98761.09;;;4.95;100.00
59971;BME280;45825;45.434;9.116;2024-01-06T07:36:24;98761.09;;;4.95;100.00
59971;BME280;45825;45.434;9.116;2024-01-06T07:38:49;98765.88;;;5.03;100.00
59971;BME280;45825;45.434;9.116;2024-01-06T07:41:15;98768.22;;;5.08;100.00
59971;BME280;45825;45.434;9.116;2024-01-06T07:43:40;98765.00;;;5.18;100.00
59971;BME280;45825;45.434;9.116;2024-01-06T07:46:05;98764.69;;;5.39;100.00
59971;BME280;45825;45.434;9.116;2024-01-06T07:48:32;98761.94;;;5.42;100.00
59971;BME280;45825;45.434;9.116;2024-01-06T07:50:57;98760.56;;;5.66;100.00
59971;BME280;45825;45.434;9.116;2024-01-06T07:53:22;98766.78;;;5.49;100.00
59971;BME280;45825;45.434;9.116;2024-01-06T07:55:48;98774.94;;;5.58;100.00
59971;BME280;45825;45.434;9.116;2024-01-06T07:58:14;98776.94;;;5.53;100.00
59971;BME280;45825;45.434;9.116;2024-01-06T08:00:39;98770.59;;;5.43;100.00
59971;BME280;45825;45.434;9.116;2024-01-06T08:03:05;98774.59;;;5.49;100.00
59971;BME280;45825;45.434;9.116;2024-01-06T08:05:31;98787.81;;;5.76;100.00
59971;BME280;45825;45.434;9.116;2024-01-06T08:07:56;98789.50;;;5.47;100.00
59971;BME280;45825;45.434;9.116;2024-01-06T08:10:22;98785.44;;;5.26;100.00
59971;BME280;45825;45.434;9.116;2024-01-06T08:12:47;98784.34;;;5.30;100.00
59971;BME280;45825;45.434;9.116;2024-01-06T08:15:13;98777.38;;;5.31;100.00
59971;BME280;45825;45.434;9.116;2024-01-06T08:17:39;98778.94;;;5.34;100.00
59971;BME280;45825;45.434;9.116;2024-01-06T08:20:07;98780.63;;;5.35;100.00
59971;BME280;45825;45.434;9.116;2024-01-06T08:22:33;98784.16;;;5.34;100.00
59971;BME280;45825;45.434;9.116;2024-01-06T08:24:59;98796.13;;;5.38;100.00
59971;BME280;45825;45.434;9.116;2024-01-06T08:27:24;98791.59;;;5.56;100.00
59971;BME280;45825;45.434;9.116;2024-01-06T08:29:49;98782.03;;;5.40;100.00
59971;BME280;45825;45.434;9.116;2024-01-06T08:32:15;98794.72;;;5.47;100.00
59971;BME280;45825;45.434;9.116;2024-01-06T08:34:41;98790.78;;;5.70;100.00
59971;BME280;45825;45.434;9.116;2024-01-06T08:37:06;98795.69;;;5.60;100.00
59971;BME280;45825;45.434;9.116;2024-01-06T08:39:32;98793.47;;;5.54;100.00
59971;BME280;45825;45.434;9.116;2024-01-06T08:41:57;98788.13;;;5.55;100.00
59971;BME280;45825;45.434;9.116;2024-01-06T08:44:23;98794.28;;;5.54;100.00
59971;BME280;45825;45.434;9.116;2024-01-06T08:46:48;98793.88;;;5.46;100.00
59971;BME280;45825;45.434;9.116;2024-01-06T08:49:14;98798.16;;;5.47;100.00
59971;BME280;45825;45.434;9.116;2024-01-06T08:51:39;98795.00;;;5.42;100.00
59971;BME280;45825;45.434;9.116;2024-01-06T08:54:04;98803.22;;;5.50;100.00
59971;BME280;45825;45.434;9.116;2024-01-06T08:56:31;98804.09;;;5.35;100.00
59971;BME280;45825;45.434;9.116;2024-01-06T08:58:56;98812.31;;;5.43;100.00
59971;BME280;45825;45.434;9.116;2024-01-06T09:01:22;98817.47;;;5.44;100.00
59971;BME280;45825;45.434;9.116;2024-01-06T09:03:47;98813.81;;;5.47;100.00
59971;BME280;45825;45.434;9.116;2024-01-06T09:06:14;98814.66;;;5.48;100.00
59971;BME280;45825;45.434;9.116;2024-01-06T09:08:39;98814.38;;;5.38;100.00
59971;BME280;45825;45.434;9.116;2024-01-06T09:11:05;98807.56;;;5.35;100.00
59971;BME280;45825;45.434;9.116;2024-01-06T09:13:30;98815.88;;;5.42;100.00
59971;BME280;45825;45.434;9.116;2024-01-06T09:15:57;98817.91;;;5.67;100.00
59971;BME280;45825;45.434;9.116;2024-01-06T09:18:22;98819.31;;;5.73;100.00
59971;BME280;45825;45.434;9.116;2024-01-06T09:20:48;98831.34;;;5.76;100.00
59971;BME280;45825;45.434;9.116;2024-01-06T09:23:13;98830.09;;;5.67;100.00
59971;BME280;45825;45.434;9.116;2024-01-06T09:25:38;98829.69;;;5.89;100.00
59971;BME280;45825;45.434;9.116;2024-01-06T09:28:05;98829.97;;;5.99;100.00
59971;BME280;45825;45.434;9.116;2024-01-06T09:30:30;98830.44;;;5.77;100.00
59971;BME280;45825;45.434;9.116;2024-01-06T09:32:56;98825.03;;;5.80;100.00
59971;BME280;45825;45.434;9.116;2024-01-06T09:35:21;98823.25;;;5.80;100.00
59971;BME280;45825;45.434;9.116;2024-01-06T09:37:46;98826.44;;;5.85;100.00
59971;BME280;45825;45.434;9.116;2024-01-06T09:40:12;98831.47;;;5.88;100.00
59971;BME280;45825;45.434;9.116;2024-01-06T09:42:40;98824.28;;;5.78;100.00
59971;BME280;45825;45.434;9.116;2024-01-06T09:45:07;98820.50;;;5.67;100.00
59971;BME280;45825;45.434;9.116;2024-01-06T09:47:34;98822.94;;;5.70;100.00
59971;BME280;45825;45.434;9.116;2024-01-06T09:50:01;98823.34;;;5.79;100.00
59971;BME280;45825;45.434;9.116;2024-01-06T09:52:30;98818.72;;;5.68;100.00
59971;BME280;45825;45.434;9.116;2024-01-06T09:54:59;98808.22;;;5.69;100.00
59971;BME280;45825;45.434;9.116;2024-01-06T09:57:25;98798.56;;;5.55;100.00
59971;BME280;45825;45.434;9.116;2024-01-06T09:59:51;98800.31;;;5.71;100.00
59971;BME280;45825;45.434;9.116;2024-01-06T10:02:17;98791.53;;;5.72;100.00
59971;BME280;45825;45.434;9.116;2024-01-06T10:04:43;98793.03;;;5.76;100.00
59971;BME280;45825;45.434;9.116;2024-01-06T10:07:09;98793.41;;;5.84;100.00
59971;BME280;45825;45.434;9.116;2024-01-06T10:09:37;98789.41;;;5.79;100.00
59971;BME280;45825;45.434;9.116;2024-01-06T10:12:03;98793.22;;;5.73;100.00
59971;BME280;45825;45.434;9.116;2024-01-06T10:14:28;98784.84;;;5.82;100.00
59971;BME280;45825;45.434;9.116;2024-01-06T10:16:54;98780.91;;;5.90;100.00
59971;BME280;45825;45.434;9.116;2024-01-06T10:19:19;98781.69;;;5.92;100.00
59971;BME280;45825;45.434;9.116;2024-01-06T10:21:45;98787.28;;;6.00;100.00
59971;BME280;45825;45.434;9.116;2024-01-06T10:24:10;98787.88;;;6.05;100.00
59971;BME280;45825;45.434;9.116;2024-01-06T10:26:36;98771.28;;;6.06;100.00
59971;BME280;45825;45.434;9.116;2024-01-06T10:29:02;98786.28;;;6.03;100.00
59971;BME280;45825;45.434;9.116;2024-01-06T10:31:29;98784.53;;;6.03;100.00
59971;BME280;45825;45.434;9.116;2024-01-06T10:33:55;98784.47;;;5.88;100.00
59971;BME280;45825;45.434;9.116;2024-01-06T10:36:22;98787.53;;;5.95;100.00
59971;BME280;45825;45.434;9.116;2024-01-06T10:38:49;98779.63;;;5.97;100.00
59971;BME280;45825;45.434;9.116;2024-01-06T10:41:16;98766.50;;;5.98;100.00
59971;BME280;45825;45.434;9.116;2024-01-06T10:43:42;98754.13;;;6.02;100.00
59971;BME280;45825;45.434;9.116;2024-01-06T10:46:09;98765.25;;;5.90;100.00
59971;BME280;45825;45.434;9.116;2024-01-06T10:48:39;98761.09;;;6.01;100.00
59971;BME280;45825;45.434;9.116;2024-01-06T10:51:08;98755.81;;;6.03;100.00
59971;BME280;45825;45.434;9.116;2024-01-06T10:53:34;98748.31;;;6.26;100.00
59971;BME280;45825;45.434;9.116;2024-01-06T10:56:04;98751.13;;;6.08;100.00
59971;BME280;45825;45.434;9.116;2024-01-06T10:58:30;98753.38;;;6.14;100.00
59971;BME280;45825;45.434;9.116;2024-01-06T11:00:57;98752.69;;;6.25;100.00
59971;BME280;45825;45.434;9.116;2024-01-06T11:03:24;98748.03;;;6.16;100.00
59971;BME280;45825;45.434;9.116;2024-01-06T11:05:49;98746.84;;;6.07;100.00
59971;BME280;45825;45.434;9.116;2024-01-06T11:08:17;98736.84;;;5.99;100.00
59971;BME280;45825;45.434;9.116;2024-01-06T11:10:43;98732.72;;;5.95;100.00
59971;BME280;45825;45.434;9.116;2024-01-06T11:13:12;98728.53;;;5.93;100.00
59971;BME280;45825;45.434;9.116;2024-01-06T11:15:49;98723.34;;;6.07;100.00
59971;BME280;45825;45.434;9.116;2024-01-06T11:18:37;98719.69;;;6.10;100.00
59971;BME280;45825;45.434;9.116;2024-01-06T11:21:20;98716.06;;;6.12;100.00
59971;BME280;45825;45.434;9.116;2024-01-06T11:26:42;98702.53;;;6.06;100.00
59971;BME280;45825;45.434;9.116;2024-01-06T11:29:07;98696.00;;;5.98;100.00
59971;BME280;45825;45.434;9.116;2024-01-06T11:31:33;98699.50;;;6.26;100.00
59971;BME280;45825;45.434;9.116;2024-01-06T11:34:13;98695.34;;;6.24;100.00
59971;BME280;45825;45.434;9.116;2024-01-06T11:36:39;98688.34;;;6.24;100.00
59971;BME280;45825;45.434;9.116;2024-01-06T11:39:05;98690.47;;;6.32;100.00
59971;BME280;45825;45.434;9.116;2024-01-06T11:41:50;98687.75;;;6.34;100.00
59971;BME280;45825;45.434;9.116;2024-01-06T11:44:20;98687.84;;;6.32;100.00
59971;BME280;45825;45.434;9.116;2024-01-06T11:46:47;98684.28;;;6.33;100.00
59971;BME280;45825;45.434;9.116;2024-01-06T11:49:15;98688.13;;;6.27;100.00
59971;BME280;45825;45.434;9.116;2024-01-06T11:51:40;98686.28;;;6.15;100.00
59971;BME280;45825;45.434;9.116;2024-01-06T11:54:06;98675.38;;;6.08;100.00
59971;BME280;45825;45.434;9.116;2024-01-06T11:56:31;98665.59;;;5.97;100.00
59971;BME280;45825;45.434;9.116;2024-01-06T11:58:56;98661.19;;;5.98;100.00
59971;BME280;45825;45.434;9.116;2024-01-06T12:01:22;98664.50;;;6.01;100.00
59971;BME280;45825;45.434;9.116;2024-01-06T12:03:54;98651.97;;;5.92;100.00
59971;BME280;45825;45.434;9.116;2024-01-06T12:06:20;98652.91;;;6.06;100.00
59971;BME280;45825;45.434;9.116;2024-01-06T12:08:46;98660.28;;;6.13;100.00
59971;BME280;45825;45.434;9.116;2024-01-06T12:11:12;98649.06;;;6.26;100.00
59971;BME280;45825;45.434;9.116;2024-01-06T12:13:37;98654.09;;;6.29;100.00
59971;BME280;45825;45.434;9.116;2024-01-06T12:16:02;98661.91;;;6.29;100.00
59971;BME280;45825;45.434;9.116;2024-01-06T12:18:28;98662.47;;;6.34;100.00
59971;BME280;45825;45.434;9.116;2024-01-06T12:20:53;98657.53;;;6.29;100.00
59971;BME280;45825;45.434;9.116;2024-01-06T12:23:26;98650.16;;;6.22;100.00
59971;BME280;45825;45.434;9.116;2024-01-06T12:25:53;98643.44;;;6.32;100.00
59971;BME280;45825;45.434;9.116;2024-01-06T12:28:19;98642.41;;;6.35;100.00
59971;BME280;45825;45.434;9.116;2024-01-06T12:30:44;98646.63;;;6.23;100.00
59971;BME280;45825;45.434;9.116;2024-01-06T12:33:09;98641.72;;;6.18;100.00
59971;BME280;45825;45.434;9.116;2024-01-06T12:35:35;98639.84;;;6.20;100.00
59971;BME280;45825;45.434;9.116;2024-01-06T12:38:02;98629.88;;;6.12;100.00
59971;BME280;45825;45.434;9.116;2024-01-06T12:40:30;98625.84;;;6.07;100.00
59971;BME280;45825;45.434;9.116;2024-01-06T12:42:55;98614.22;;;6.12;100.00
59971;BME280;45825;45.434;9.116;2024-01-06T12:45:21;98613.56;;;6.09;100.00
59971;BME280;45825;45.434;9.116;2024-01-06T12:47:46;98605.72;;;6.09;100.00
59971;BME280;45825;45.434;9.116;2024-01-06T12:50:11;98603.31;;;6.33;100.00
59971;BME280;45825;45.434;9.116;2024-01-06T12:52:37;98610.13;;;6.36;100.00
59971;BME280;45825;45.434;9.116;2024-01-06T12:55:05;98606.63;;;6.22;100.00